Time;durP1;ratioP1;P1;durP2;ratioP2;P2;SDS_P1;SDS_P2;PMS_P1;PMS_P2;Temp;Humidity;BMP_temperature;BMP_pressure;BME280_temperature;BME280_humidity;BME280_pressure;Samples;Min_cycle;Max_cycle;Signal;HPM_P1;HPM_P2
2022/07/16 00:02:38;;;;;;;4.70;1.90;;;;;;;26.53;41.51;100379.89;117265;1183;22926;-61
2022/07/16 00:05:06;;;;;;;3.50;1.80;;;;;;;26.54;41.54;100368.13;116969;1187;23658;-62
2022/07/16 00:07:33;;;;;;;2.80;2.00;;;;;;;26.57;41.45;100364.30;117040;1187;21845;-62
2022/07/16 00:10:01;;;;;;;4.00;1.90;;;;;;;26.62;41.42;100363.20;117065;1189;21867;-60
2022/07/16 00:12:28;;;;;;;4.60;1.80;;;;;;;26.68;41.38;100373.33;117083;1182;23084;-62
2022/07/16 00:14:55;;;;;;;4.00;1.70;;;;;;;26.71;41.33;100378.67;116932;1187;22110;-63
2022/07/16 00:17:22;;;;;;;3.10;1.60;;;;;;;26.74;41.34;100385.10;116785;1188;21859;-59
2022/07/16 00:19:49;;;;;;;3.00;1.80;;;;;;;26.77;41.31;100384.14;116978;1185;21881;-59
2022/07/16 00:22:16;;;;;;;4.00;2.00;;;;;;;26.80;41.21;100376.30;117316;1181;21874;-63
2022/07/16 00:24:44;;;;;;;5.10;1.70;;;;;;;26.83;41.08;100368.56;117214;1186;21907;-60
2022/07/16 00:27:11;;;;;;;5.20;1.70;;;;;;;26.80;41.24;100361.16;117110;1186;23452;-63
2022/07/16 00:29:38;;;;;;;3.90;1.50;;;;;;;26.77;41.23;100357.11;117071;1189;21857;-59
2022/07/16 00:32:05;;;;;;;2.70;1.70;;;;;;;26.81;41.16;100354.83;117283;1184;24213;-59
2022/07/16 00:34:33;;;;;;;3.80;1.60;;;;;;;26.83;41.15;100356.31;117068;1188;21950;-63
2022/07/16 00:37:00;;;;;;;5.50;1.30;;;;;;;26.84;41.08;100354.44;117279;1183;21863;-63
2022/07/16 00:39:28;;;;;;;2.70;1.50;;;;;;;26.84;41.05;100354.40;117333;1183;21867;-63
2022/07/16 00:41:57;;;;;;;2.70;1.40;;;;;;;26.84;41.06;100348.66;117059;1186;24307;-59
2022/07/16 00:44:24;;;;;;;2.80;1.70;;;;;;;26.83;41.04;100346.77;117332;1186;21919;-63
2022/07/16 00:46:51;;;;;;;3.10;1.90;;;;;;;26.82;41.00;100347.00;117118;1182;22612;-63
2022/07/16 00:49:19;;;;;;;5.50;1.60;;;;;;;26.81;41.02;100345.48;117324;1183;21845;-63
2022/07/16 00:51:51;;;;;;;2.90;1.70;;;;;;;26.79;40.96;100350.66;117308;1183;21863;-63
2022/07/16 00:54:21;;;;;;;4.20;1.70;;;;;;;26.77;40.99;100352.64;117307;1185;23544;-60
2022/07/16 00:56:48;;;;;;;3.00;1.40;;;;;;;26.70;41.03;100358.03;117303;1185;21852;-60
2022/07/16 00:59:15;;;;;;;4.30;1.50;;;;;;;26.69;41.07;100358.99;117263;1186;22943;-62
2022/07/16 01:01:42;;;;;;;2.10;1.50;;;;;;;26.67;41.21;100362.43;116982;1188;21937;-59
2022/07/16 01:04:11;;;;;;;3.40;1.60;;;;;;;26.59;41.33;100366.27;117287;1186;21841;-59
2022/07/16 01:06:39;;;;;;;2.70;1.60;;;;;;;26.51;41.38;100369.98;117337;1184;22377;-63
2022/07/16 01:09:06;;;;;;;2.30;1.60;;;;;;;26.41;41.42;100371.51;117270;1186;21866;-59
2022/07/16 01:11:33;;;;;;;3.20;1.90;;;;;;;26.33;41.36;100369.81;117157;1183;21945;-62
2022/07/16 01:14:01;;;;;;;2.70;1.70;;;;;;;26.26;41.42;100368.36;117112;1188;22869;-59
2022/07/16 01:16:28;;;;;;;3.60;2.10;;;;;;;26.18;41.64;100368.77;117172;1183;21891;-59
2022/07/16 01:18:55;;;;;;;3.40;1.60;;;;;;;26.10;41.77;100372.42;117131;1186;22201;-59
2022/07/16 01:21:23;;;;;;;2.70;1.40;;;;;;;26.02;41.93;100373.09;117056;1186;22154;-63
2022/07/16 01:23:50;;;;;;;4.00;1.60;;;;;;;25.92;42.07;100377.06;117069;1183;21856;-59
2022/07/16 01:26:17;;;;;;;2.80;1.60;;;;;;;25.84;42.37;100389.17;117129;1182;21866;-62
2022/07/16 01:28:45;;;;;;;6.70;1.90;;;;;;;25.73;42.64;100391.06;117100;1186;21853;-62
2022/07/16 01:31:13;;;;;;;5.70;2.00;;;;;;;25.59;42.75;100389.23;117164;1186;21902;-62
2022/07/16 01:33:41;;;;;;;4.90;1.90;;;;;;;25.48;43.07;100391.33;117051;1186;21943;-59
2022/07/16 01:36:12;;;;;;;5.50;1.80;;;;;;;25.38;43.24;100392.06;117176;1186;23631;-59
2022/07/16 01:38:44;;;;;;;5.50;2.30;;;;;;;25.27;43.42;100394.11;117151;1186;21974;-62
2022/07/16 01:41:12;;;;;;;8.50;2.80;;;;;;;25.16;43.60;100392.39;117171;1187;21860;-62
2022/07/16 01:43:39;;;;;;;3.90;2.10;;;;;;;25.08;43.68;100385.39;117024;1188;21883;-61
2022/07/16 01:46:06;;;;;;;5.40;1.80;;;;;;;25.04;43.83;100381.23;117211;1186;23589;-60
2022/07/16 01:48:35;;;;;;;5.20;2.20;;;;;;;24.98;43.80;100376.06;117082;1186;22877;-59
2022/07/16 01:51:03;;;;;;;4.60;2.20;;;;;;;24.93;44.07;100374.15;116910;1186;21853;-62
2022/07/16 01:53:30;;;;;;;5.20;1.90;;;;;;;24.86;44.11;100374.08;116996;1186;22819;-61
2022/07/16 01:55:58;;;;;;;5.50;2.00;;;;;;;24.81;44.21;100381.11;117096;1187;21860;-59
2022/07/16 01:58:30;;;;;;;3.50;1.90;;;;;;;24.75;44.40;100386.52;117176;1186;21864;-59
2022/07/16 02:00:57;;;;;;;6.20;2.30;;;;;;;24.71;44.44;100389.70;117121;1185;22926;-61
2022/07/16 02:03:24;;;;;;;6.70;2.30;;;;;;;24.66;44.63;100390.77;117038;1183;22658;-62
2022/07/16 02:05:51;;;;;;;7.30;2.20;;;;;;;24.62;44.58;100388.52;117138;1186;21846;-62
2022/07/16 02:08:19;;;;;;;5.40;2.30;;;;;;;24.58;44.73;100388.29;117202;1186;21878;-59
2022/07/16 02:10:48;;;;;;;7.60;1.90;;;;;;;24.54;44.91;100392.50;117643;1187;21867;-60
2022/07/16 02:13:16;;;;;;;5.70;2.00;;;;;;;24.50;44.90;100392.20;117028;1188;23538;-62
2022/07/16 02:15:43;;;;;;;3.10;1.80;;;;;;;24.46;45.04;100388.55;116853;1188;21868;-59
2022/07/16 02:18:10;;;;;;;7.30;1.90;;;;;;;24.43;45.19;100392.89;117024;1189;21848;-61
2022/07/16 02:20:38;;;;;;;5.70;2.30;;;;;;;24.38;45.32;100401.84;116976;1186;21866;-62
2022/07/16 02:23:05;;;;;;;5.40;2.10;;;;;;;24.31;45.37;100405.16;117013;1186;21970;-60
2022/07/16 02:25:33;;;;;;;3.90;2.10;;;;;;;24.27;45.22;100408.54;116944;1186;21907;-62
2022/07/16 02:28:06;;;;;;;4.40;2.40;;;;;;;24.32;45.42;100413.54;116877;1186;23477;-62
2022/07/16 02:30:42;;;;;;;2.40;1.50;;;;;;;24.28;45.35;100412.03;116968;1182;23566;-60
2022/07/16 02:33:10;;;;;;;4.40;1.80;;;;;;;24.19;45.57;100407.31;116972;1187;23283;-62
2022/07/16 02:35:37;;;;;;;3.40;1.60;;;;;;;24.08;45.83;100405.70;117096;1186;22045;-59
2022/07/16 02:38:05;;;;;;;3.10;1.70;;;;;;;24.00;45.62;100404.64;117146;1187;22207;-59
2022/07/16 02:40:33;;;;;;;2.00;1.40;;;;;;;23.93;45.79;100406.70;116797;1186;21970;-61
2022/07/16 02:43:01;;;;;;;4.10;1.50;;;;;;;23.85;45.76;100411.14;117096;1188;23032;-59
2022/07/16 02:45:31;;;;;;;2.60;1.50;;;;;;;23.81;45.93;100410.22;117021;1186;22946;-61
2022/07/16 02:47:59;;;;;;;3.30;2.10;;;;;;;23.74;46.00;100404.39;117387;1187;23688;-59
2022/07/16 02:50:27;;;;;;;3.40;1.60;;;;;;;23.70;46.22;100410.36;117065;1188;21873;-59
2022/07/16 02:52:55;;;;;;;2.40;1.50;;;;;;;23.67;46.25;100416.84;117015;1187;22539;-61
2022/07/16 02:55:22;;;;;;;2.60;1.60;;;;;;;23.61;46.56;100419.38;117142;1187;22930;-61
2022/07/16 02:57:49;;;;;;;2.70;1.60;;;;;;;23.55;46.39;100421.38;117261;1182;23556;-59
2022/07/16 03:00:16;;;;;;;4.50;1.80;;;;;;;23.52;46.41;100422.46;117228;1180;22988;-59
2022/07/16 03:02:43;;;;;;;4.50;1.90;;;;;;;23.50;46.63;100423.74;117134;1183;22648;-62
2022/07/16 03:05:11;;;;;;;2.90;1.80;;;;;;;23.47;46.63;100427.10;116954;1189;21856;-62
2022/07/16 03:07:38;;;;;;;2.70;1.60;;;;;;;23.44;46.93;100430.88;117049;1188;21873;-59
2022/07/16 03:10:06;;;;;;;5.50;2.30;;;;;;;23.41;46.80;100437.54;116843;1189;21856;-59
2022/07/16 03:12:33;;;;;;;3.20;1.90;;;;;;;23.37;46.90;100442.06;117051;1189;21891;-59
2022/07/16 03:15:03;;;;;;;4.90;1.90;;;;;;;23.36;47.08;100448.98;116933;1188;21921;-62
2022/07/16 03:17:30;;;;;;;3.70;1.70;;;;;;;23.34;47.14;100443.89;117067;1182;21994;-59
2022/07/16 03:19:57;;;;;;;2.40;1.80;;;;;;;23.34;47.29;100447.15;117106;1184;21857;-62
2022/07/16 03:22:25;;;;;;;4.20;1.90;;;;;;;23.35;47.26;100450.11;117080;1183;23497;-62
2022/07/16 03:24:52;;;;;;;2.90;2.00;;;;;;;23.37;47.47;100451.59;116780;1188;21849;-59
2022/07/16 03:27:19;;;;;;;4.70;1.90;;;;;;;23.38;47.54;100451.37;117270;1183;23479;-60
2022/07/16 03:29:46;;;;;;;3.00;2.00;;;;;;;23.39;47.51;100446.26;117027;1186;23649;-62
2022/07/16 03:32:13;;;;;;;3.10;2.40;;;;;;;23.43;47.62;100441.16;117119;1186;21860;-59
2022/07/16 03:34:41;;;;;;;2.90;2.30;;;;;;;23.47;47.69;100441.29;116855;1188;21860;-60
2022/07/16 03:37:08;;;;;;;7.00;2.60;;;;;;;23.51;47.99;100444.59;116925;1188;22726;-59
2022/07/16 03:39:35;;;;;;;3.70;2.50;;;;;;;23.55;47.85;100447.18;117011;1189;23716;-62
2022/07/16 03:42:02;;;;;;;3.40;2.40;;;;;;;23.62;47.97;100448.50;116989;1186;21880;-61
2022/07/16 03:44:30;;;;;;;6.00;2.40;;;;;;;23.70;47.96;100451.39;116992;1186;21916;-59
2022/07/16 03:46:57;;;;;;;4.00;2.70;;;;;;;23.82;47.88;100450.05;116934;1186;23642;-60
2022/07/16 03:49:25;;;;;;;4.70;2.40;;;;;;;23.98;47.83;100455.10;116937;1187;21891;-60
2022/07/16 03:51:52;;;;;;;7.00;2.80;;;;;;;24.08;47.82;100454.96;116898;1182;22534;-62
2022/07/16 03:54:20;;;;;;;4.50;2.60;;;;;;;24.16;47.70;100460.75;117009;1186;23047;-60
2022/07/16 03:56:47;;;;;;;8.70;2.60;;;;;;;24.23;47.68;100464.77;116987;1188;22931;-60
2022/07/16 03:59:14;;;;;;;3.90;2.60;;;;;;;24.28;47.88;100461.68;117160;1186;22915;-59
2022/07/16 04:01:41;;;;;;;5.70;2.60;;;;;;;24.36;47.57;100459.37;116934;1187;21978;-59
2022/07/16 04:04:09;;;;;;;4.20;2.60;;;;;;;24.39;47.42;100458.63;116948;1185;22735;-59
2022/07/16 04:06:36;;;;;;;5.30;2.70;;;;;;;24.43;47.51;100462.48;116847;1186;23722;-62
2022/07/16 04:09:03;;;;;;;4.60;2.90;;;;;;;24.54;47.50;100465.16;117014;1186;22486;-59
2022/07/16 04:11:31;;;;;;;6.20;2.90;;;;;;;24.63;47.56;100465.91;117125;1185;21827;-60
2022/07/16 04:13:58;;;;;;;4.60;2.90;;;;;;;24.76;47.64;100471.15;116967;1188;23648;-60
2022/07/16 04:16:25;;;;;;;10.40;3.60;;;;;;;24.83;47.43;100473.40;116858;1187;23457;-59
2022/07/16 04:18:53;;;;;;;4.10;3.10;;;;;;;24.90;47.40;100476.48;117176;1182;21931;-63
2022/07/16 04:21:20;;;;;;;5.10;2.80;;;;;;;24.98;47.45;100476.27;116938;1188;21923;-62
2022/07/16 04:23:47;;;;;;;13.40;3.70;;;;;;;25.06;47.48;100474.62;117139;1182;23722;-62
2022/07/16 04:26:14;;;;;;;6.40;3.10;;;;;;;25.09;47.22;100473.15;116766;1189;23584;-60
2022/07/16 04:28:42;;;;;;;4.80;3.90;;;;;;;25.11;47.48;100474.48;116793;1189;21985;-62
2022/07/16 04:31:10;;;;;;;8.00;3.70;;;;;;;25.06;47.59;100478.16;117084;1183;24221;-62
2022/07/16 04:33:37;;;;;;;6.40;3.60;;;;;;;25.03;47.52;100481.05;117058;1187;23457;-59
2022/07/16 04:36:05;;;;;;;4.40;4.00;;;;;;;25.03;47.52;100481.65;116775;1188;23196;-62
2022/07/16 04:38:31;;;;;;;4.50;3.50;;;;;;;25.04;47.73;100484.79;116953;1186;22962;-59
2022/07/16 04:40:58;;;;;;;4.60;3.70;;;;;;;25.10;47.88;100485.42;116924;1184;22998;-62
2022/07/16 04:43:27;;;;;;;6.00;4.10;;;;;;;25.20;47.69;100487.94;116819;1187;21860;-62
2022/07/16 04:45:54;;;;;;;4.60;3.60;;;;;;;25.30;47.70;100490.83;117288;1186;21858;-62
2022/07/16 04:48:21;;;;;;;6.40;3.90;;;;;;;25.41;47.84;100487.70;117140;1187;21860;-63
2022/07/16 04:50:49;;;;;;;4.70;3.50;;;;;;;25.53;47.73;100484.57;116961;1182;23651;-61
2022/07/16 04:53:16;;;;;;;5.20;4.30;;;;;;;25.61;47.78;100485.17;117134;1187;22734;-62
2022/07/16 04:55:43;;;;;;;5.40;4.20;;;;;;;25.71;47.64;100487.34;117106;1186;22892;-59
2022/07/16 04:58:11;;;;;;;4.70;4.10;;;;;;;25.80;47.41;100485.80;117070;1183;22632;-60
2022/07/16 05:00:39;;;;;;;7.30;4.50;;;;;;;25.91;47.42;100487.50;117044;1187;21898;-61
2022/07/16 05:03:07;;;;;;;5.20;3.70;;;;;;;26.04;47.29;100487.59;117053;1187;22949;-62
2022/07/16 05:05:35;;;;;;;5.00;3.70;;;;;;;26.14;47.27;100486.83;117093;1186;21858;-63
2022/07/16 05:08:05;;;;;;;5.00;3.90;;;;;;;26.32;47.12;100491.27;116859;1189;21922;-60
2022/07/16 05:10:36;;;;;;;7.60;3.90;;;;;;;26.49;47.16;100493.41;117046;1186;21857;-59
2022/07/16 05:13:05;;;;;;;8.80;3.90;;;;;;;26.65;47.00;100499.35;117040;1182;21869;-59
2022/07/16 05:15:34;;;;;;;10.00;4.70;;;;;;;26.79;46.78;100501.86;117320;1184;23471;-60
2022/07/16 05:18:03;;;;;;;4.20;3.70;;;;;;;26.89;46.64;100496.95;117291;1187;22937;-62
2022/07/16 05:20:32;;;;;;;5.20;3.80;;;;;;;27.05;46.52;100493.68;117215;1182;22804;-59
2022/07/16 05:22:59;;;;;;;6.70;4.20;;;;;;;27.23;46.31;100492.42;116881;1186;21848;-59
2022/07/16 05:25:28;;;;;;;4.60;3.50;;;;;;;27.39;46.24;100492.46;116971;1186;22943;-60
2022/07/16 05:27:58;;;;;;;5.20;3.20;;;;;;;27.61;46.16;100491.52;116937;1186;21894;-63
2022/07/16 05:30:27;;;;;;;5.50;3.70;;;;;;;27.88;46.04;100490.09;117086;1186;23560;-60
2022/07/16 05:32:54;;;;;;;5.90;3.40;;;;;;;28.09;45.79;100490.86;117244;1183;23751;-63
2022/07/16 05:35:22;;;;;;;6.10;3.50;;;;;;;28.30;45.45;100488.88;116776;1186;21883;-63
2022/07/16 05:37:49;;;;;;;5.30;3.20;;;;;;;28.52;45.21;100487.05;117040;1187;21897;-63
2022/07/16 05:40:16;;;;;;;10.20;3.30;;;;;;;28.72;45.13;100488.17;117018;1186;21915;-64
2022/07/16 05:42:43;;;;;;;3.80;3.30;;;;;;;28.97;44.95;100486.20;116967;1187;22929;-64
2022/07/16 05:45:15;;;;;;;3.80;3.20;;;;;;;29.26;44.90;100490.20;117209;1185;21857;-64
2022/07/16 05:47:42;;;;;;;8.50;3.50;;;;;;;29.50;44.41;100494.92;117113;1181;22633;-64
2022/07/16 05:50:10;;;;;;;4.90;3.40;;;;;;;29.65;44.00;100491.38;117079;1186;21871;-64
2022/07/16 05:52:37;;;;;;;6.30;3.40;;;;;;;29.73;44.01;100490.81;116974;1186;21859;-63
2022/07/16 05:55:05;;;;;;;7.60;3.30;;;;;;;29.87;43.72;100490.51;116794;1186;22983;-63
2022/07/16 05:57:33;;;;;;;4.60;3.20;;;;;;;29.91;43.43;100489.40;117035;1187;22655;-59
2022/07/16 06:00:00;;;;;;;5.00;3.20;;;;;;;29.99;43.60;100495.05;117121;1186;24230;-60
2022/07/16 06:02:27;;;;;;;6.30;3.40;;;;;;;30.14;43.14;100499.21;117141;1186;21868;-63
2022/07/16 06:04:54;;;;;;;5.40;4.00;;;;;;;30.16;43.08;100500.85;117150;1184;22956;-63
2022/07/16 06:07:22;;;;;;;3.50;3.20;;;;;;;30.24;42.87;100497.96;117019;1183;23526;-63
2022/07/16 06:09:50;;;;;;;7.80;4.10;;;;;;;30.32;43.03;100492.83;117158;1184;23029;-63
2022/07/16 06:12:17;;;;;;;15.40;7.60;;;;;;;30.50;42.85;100494.42;117094;1184;21839;-60
2022/07/16 06:14:44;;;;;;;9.30;5.40;;;;;;;30.76;42.91;100494.36;117065;1186;21887;-61
2022/07/16 06:17:11;;;;;;;4.80;3.50;;;;;;;31.05;42.58;100496.84;117142;1186;22333;-61
2022/07/16 06:19:41;;;;;;;5.30;3.20;;;;;;;31.19;41.74;100494.60;117323;1186;21859;-63
2022/07/16 06:22:12;;;;;;;7.40;3.70;;;;;;;31.18;41.60;100495.38;117435;1183;23554;-63
2022/07/16 06:24:40;;;;;;;4.20;3.10;;;;;;;31.26;41.60;100493.23;117424;1182;21970;-64
2022/07/16 06:27:08;;;;;;;3.70;2.50;;;;;;;31.47;41.51;100491.70;117526;1185;21864;-63
2022/07/16 06:29:36;;;;;;;3.70;2.90;;;;;;;31.66;40.97;100492.88;117371;1186;21867;-60
2022/07/16 06:32:08;;;;;;;5.10;2.60;;;;;;;31.76;40.70;100493.91;117461;1186;21857;-64
2022/07/16 06:34:38;;;;;;;3.80;2.70;;;;;;;31.79;40.58;100495.81;117586;1180;22929;-61
2022/07/16 06:37:05;;;;;;;5.80;2.90;;;;;;;31.86;40.44;100493.83;117160;1186;22624;-63
2022/07/16 06:39:32;;;;;;;4.80;2.80;;;;;;;32.00;40.32;100498.96;117066;1187;22647;-64
2022/07/16 06:42:00;;;;;;;5.60;2.50;;;;;;;32.17;40.36;100501.38;116952;1187;23453;-64
2022/07/16 06:44:27;;;;;;;3.90;2.30;;;;;;;32.43;40.27;100500.92;117134;1186;21943;-60
2022/07/16 06:46:54;;;;;;;4.30;2.60;;;;;;;32.68;39.92;100503.58;117043;1185;23455;-60
2022/07/16 06:49:21;;;;;;;4.30;2.80;;;;;;;32.82;39.57;100507.46;117183;1186;21867;-63
2022/07/16 06:51:49;;;;;;;4.90;2.80;;;;;;;32.93;39.32;100505.61;117081;1185;23622;-60
2022/07/16 06:54:17;;;;;;;3.20;2.30;;;;;;;33.01;39.04;100508.05;116856;1183;21930;-63
2022/07/16 06:56:45;;;;;;;3.60;2.30;;;;;;;33.14;38.87;100506.13;117130;1186;21866;-61
2022/07/16 06:59:16;;;;;;;4.00;2.30;;;;;;;33.18;38.20;100507.64;117057;1184;22565;-63
2022/07/16 07:01:43;;;;;;;3.60;2.40;;;;;;;33.17;38.17;100507.64;117032;1180;22928;-60
2022/07/16 07:04:10;;;;;;;4.00;2.30;;;;;;;33.23;38.03;100508.96;117050;1187;21950;-63
2022/07/16 07:06:37;;;;;;;4.70;2.60;;;;;;;33.37;38.04;100505.11;117071;1186;21961;-60
2022/07/16 07:09:05;;;;;;;4.50;2.50;;;;;;;33.56;37.98;100506.23;117016;1187;23458;-60
2022/07/16 07:11:34;;;;;;;5.60;3.10;;;;;;;33.75;37.89;100506.16;117169;1185;21860;-63
2022/07/16 07:14:01;;;;;;;6.70;3.00;;;;;;;33.98;38.03;100503.73;117068;1186;23453;-60
2022/07/16 07:16:30;;;;;;;4.40;2.30;;;;;;;34.20;37.70;100505.27;117056;1184;22537;-60
2022/07/16 07:18:57;;;;;;;5.00;2.50;;;;;;;34.31;37.47;100504.02;117077;1184;23553;-60
2022/07/16 07:21:25;;;;;;;4.40;2.70;;;;;;;34.46;37.33;100497.64;117276;1185;21860;-61
2022/07/16 07:23:52;;;;;;;5.60;2.50;;;;;;;34.71;36.97;100494.91;117123;1183;21862;-63
2022/07/16 07:26:20;;;;;;;3.10;2.50;;;;;;;34.97;36.88;100496.02;117059;1183;22928;-64
2022/07/16 07:28:48;;;;;;;8.00;3.10;;;;;;;35.12;36.25;100493.94;117070;1185;21896;-60
2022/07/16 07:31:15;;;;;;;3.20;2.50;;;;;;;35.11;35.90;100493.67;117152;1182;23469;-64
2022/07/16 07:33:47;;;;;;;4.50;2.40;;;;;;;35.09;35.70;100495.52;117183;1185;21857;-64
2022/07/16 07:36:14;;;;;;;10.30;2.40;;;;;;;35.25;35.82;100496.20;117119;1186;21867;-64
2022/07/16 07:38:41;;;;;;;4.10;2.30;;;;;;;35.51;35.46;100493.28;116875;1187;23269;-64
2022/07/16 07:41:09;;;;;;;4.30;2.20;;;;;;;35.69;35.05;100493.73;117244;1182;22947;-64
2022/07/16 07:43:37;;;;;;;4.50;2.10;;;;;;;35.81;34.40;100492.51;117129;1182;21898;-65
2022/07/16 07:46:04;;;;;;;3.30;2.20;;;;;;;36.02;34.37;100493.48;117178;1186;21866;-64
2022/07/16 07:48:32;;;;;;;5.50;2.00;;;;;;;36.21;34.01;100493.77;117062;1186;22673;-65
2022/07/16 07:51:00;;;;;;;3.30;2.10;;;;;;;36.28;33.50;100490.06;117147;1186;21854;-64
2022/07/16 07:53:28;;;;;;;2.90;1.70;;;;;;;36.30;33.48;100486.04;117061;1187;21868;-61
2022/07/16 07:55:56;;;;;;;2.20;1.50;;;;;;;36.34;32.94;100486.08;117056;1187;22947;-64
2022/07/16 07:58:23;;;;;;;4.40;1.80;;;;;;;36.42;33.11;100486.07;117123;1182;21860;-61
2022/07/16 08:00:54;;;;;;;2.90;2.00;;;;;;;36.59;32.73;100484.58;116802;1187;21856;-60
2022/07/16 08:03:41;;;;;;;3.60;1.70;;;;;;;36.72;32.41;100486.63;117085;1186;24179;-61
2022/07/16 08:06:09;;;;;;;2.40;1.60;;;;;;;36.79;32.32;100484.11;117046;1184;21858;-61
2022/07/16 08:08:36;;;;;;;2.70;2.00;;;;;;;36.96;31.95;100485.36;117152;1186;21864;-61
2022/07/16 08:11:04;;;;;;;2.30;1.70;;;;;;;37.08;31.76;100484.85;117030;1186;22842;-61
2022/07/16 08:13:31;;;;;;;2.30;1.80;;;;;;;37.19;31.49;100485.83;117240;1186;21857;-62
2022/07/16 08:15:59;;;;;;;2.20;2.00;;;;;;;37.32;30.74;100487.38;117081;1187;22918;-64
2022/07/16 08:18:26;;;;;;;2.70;1.80;;;;;;;37.42;30.49;100482.48;117006;1187;21859;-64
2022/07/16 08:20:54;;;;;;;4.40;1.80;;;;;;;37.52;30.63;100485.23;117007;1187;21870;-61
2022/07/16 08:26:07;;;;;;;2.80;1.70;;;;;;;37.95;30.46;100487.84;117131;1182;22804;-62
2022/07/16 08:28:40;;;;;;;2.80;1.50;;;;;;;38.21;30.14;100485.31;117222;1184;21857;-65
2022/07/16 08:31:07;;;;;;;2.50;1.70;;;;;;;38.42;29.99;100482.23;117052;1182;22646;-61
2022/07/16 08:33:35;;;;;;;2.50;1.60;;;;;;;38.63;29.42;100484.23;117166;1186;21860;-65
2022/07/16 08:36:03;;;;;;;2.40;1.70;;;;;;;38.84;29.18;100484.63;117065;1186;23721;-64
2022/07/16 08:38:30;;;;;;;6.70;1.40;;;;;;;38.96;28.80;100482.67;117013;1187;23725;-64
2022/07/16 08:41:05;;;;;;;1.90;1.40;;;;;;;39.13;28.94;100482.20;117055;1183;21947;-61
2022/07/16 08:43:33;;;;;;;2.80;1.60;;;;;;;39.34;28.62;100480.05;117149;1186;22113;-65
2022/07/16 08:46:02;;;;;;;6.40;1.70;;;;;;;39.48;28.23;100476.50;117241;1187;21944;-61
2022/07/16 08:48:34;;;;;;;1.70;1.20;;;;;;;39.54;27.91;100473.23;117317;1186;21896;-63
2022/07/16 08:51:01;;;;;;;2.10;1.40;;;;;;;39.60;27.51;100468.92;117162;1181;21853;-64
2022/07/16 08:53:31;;;;;;;1.50;1.20;;;;;;;39.65;27.55;100468.52;117071;1189;21907;-64
2022/07/16 08:55:59;;;;;;;4.00;2.00;;;;;;;39.82;27.03;100468.09;117026;1186;21860;-65
2022/07/16 08:58:29;;;;;;;5.20;1.60;;;;;;;39.90;26.93;100469.59;117056;1185;22887;-62
2022/07/16 09:00:57;;;;;;;2.70;1.90;;;;;;;40.05;26.53;100471.84;117139;1186;21856;-65
2022/07/16 09:03:24;;;;;;;5.00;1.80;;;;;;;40.27;26.81;100467.54;117237;1181;21862;-62
2022/07/16 09:05:52;;;;;;;4.50;1.50;;;;;;;40.45;26.56;100465.90;117300;1182;22932;-62
2022/07/16 09:08:19;;;;;;;1.90;1.40;;;;;;;40.54;25.99;100464.73;117138;1183;22928;-62
2022/07/16 09:10:46;;;;;;;4.90;1.50;;;;;;;40.57;25.99;100464.89;117018;1186;21867;-65
2022/07/16 09:13:13;;;;;;;2.80;1.70;;;;;;;40.69;25.92;100464.92;117102;1186;21870;-63
2022/07/16 09:15:42;;;;;;;1.80;1.60;;;;;;;40.81;25.58;100458.61;117072;1187;22956;-65
2022/07/16 09:18:25;;;;;;;2.60;1.50;;;;;;;40.95;25.32;100464.80;117070;1186;22928;-65
2022/07/16 09:20:57;;;;;;;2.90;1.40;;;;;;;41.13;25.00;100464.99;117146;1186;22652;-65
2022/07/16 09:23:28;;;;;;;4.40;1.70;;;;;;;41.19;24.60;100465.69;117156;1186;23853;-66
2022/07/16 09:26:06;;;;;;;4.70;1.20;;;;;;;41.31;24.62;100466.18;117028;1187;22966;-66
2022/07/16 09:28:43;;;;;;;2.50;1.40;;;;;;;41.49;24.04;100460.04;117126;1183;21944;-62
2022/07/16 09:31:11;;;;;;;2.10;1.40;;;;;;;41.49;23.88;100458.35;117045;1187;21865;-66
2022/07/16 09:33:38;;;;;;;4.20;1.50;;;;;;;41.55;23.85;100458.52;117017;1184;23453;-65
2022/07/16 09:36:09;;;;;;;3.20;1.90;;;;;;;41.69;23.30;100459.05;117061;1186;23651;-63
2022/07/16 09:38:50;;;;;;;1.20;1.10;;;;;;;41.72;22.88;100453.33;116915;1186;24185;-65
2022/07/16 09:41:20;;;;;;;2.00;1.20;;;;;;;41.47;22.47;100447.61;117066;1186;21892;-63
2022/07/16 09:43:47;;;;;;;4.10;1.50;;;;;;;41.36;22.46;100444.66;118228;1184;21799;-61
2022/07/16 09:46:18;;;;;;;1.50;1.20;;;;;;;41.45;22.48;100441.73;119367;1185;21724;-63
2022/07/16 09:48:46;;;;;;;6.20;1.70;;;;;;;41.53;22.69;100444.44;119351;1183;22218;-64
2022/07/16 09:51:20;;;;;;;2.20;1.20;;;;;;;41.74;22.54;100442.14;117875;1186;21855;-64
2022/07/16 09:53:48;;;;;;;8.80;1.60;;;;;;;41.95;22.45;100441.71;118970;1182;21866;-63
2022/07/16 09:56:20;;;;;;;5.00;1.50;;;;;;;42.24;22.11;100440.73;117035;1182;22931;-62
2022/07/16 09:58:58;;;;;;;4.10;1.70;;;;;;;42.43;21.91;100439.67;117261;1186;21902;-64
2022/07/16 10:01:32;;;;;;;4.10;1.30;;;;;;;42.61;21.75;100431.63;117229;1185;21853;-60
2022/07/16 10:03:59;;;;;;;4.90;1.60;;;;;;;42.80;21.79;100431.09;117016;1186;23056;-63
2022/07/16 10:06:26;;;;;;;3.30;1.60;;;;;;;42.99;21.42;100434.14;117167;1186;21890;-63
2022/07/16 10:08:54;;;;;;;2.50;1.20;;;;;;;43.18;21.11;100433.63;117218;1182;22628;-62
2022/07/16 10:11:22;;;;;;;1.70;1.40;;;;;;;43.33;20.95;100438.08;117011;1186;23003;-63
2022/07/16 10:13:49;;;;;;;2.20;1.50;;;;;;;43.32;20.84;100437.18;117245;1182;22860;-63
2022/07/16 10:16:18;;;;;;;3.70;1.40;;;;;;;43.21;19.70;100429.55;117008;1187;21976;-61
2022/07/16 10:18:47;;;;;;;1.60;1.20;;;;;;;42.98;20.35;100430.19;117113;1181;22940;-63
2022/07/16 10:21:15;;;;;;;1.90;1.30;;;;;;;42.96;20.52;100426.69;117194;1185;22960;-64
2022/07/16 10:23:47;;;;;;;3.10;1.50;;;;;;;43.07;20.24;100427.21;117157;1184;21857;-61
2022/07/16 10:26:19;;;;;;;2.90;1.60;;;;;;;43.20;20.22;100426.88;117206;1185;23466;-64
2022/07/16 10:28:56;;;;;;;1.30;1.20;;;;;;;43.39;20.20;100423.01;117247;1183;22730;-63
2022/07/16 10:34:35;;;;;;;5.90;1.60;;;;;;;43.50;19.76;100426.67;117176;1184;21967;-62
2022/07/16 10:37:03;;;;;;;4.00;1.70;;;;;;;43.51;19.77;100425.99;117168;1186;21967;-64
2022/07/16 10:39:30;;;;;;;3.90;1.60;;;;;;;43.37;19.63;100425.27;117251;1186;23582;-62
2022/07/16 10:42:00;;;;;;;6.20;1.70;;;;;;;43.14;19.57;100429.41;117175;1184;21881;-64
2022/07/16 10:44:42;;;;;;;3.30;1.40;;;;;;;42.98;19.69;100432.45;117206;1185;22628;-61
2022/07/16 10:47:10;;;;;;;2.50;1.50;;;;;;;42.90;19.55;100428.38;117128;1186;21862;-64
2022/07/16 10:49:38;;;;;;;4.20;1.50;;;;;;;42.93;19.01;100430.80;117320;1182;22623;-64
2022/07/16 10:52:06;;;;;;;2.90;1.70;;;;;;;42.82;18.83;100428.63;117254;1185;21858;-65
2022/07/16 10:54:35;;;;;;;6.50;1.50;;;;;;;42.80;19.39;100429.98;117285;1185;21965;-62
2022/07/16 10:57:16;;;;;;;2.70;1.60;;;;;;;42.91;18.96;100428.33;117239;1185;23259;-63
2022/07/16 10:59:47;;;;;;;4.20;1.40;;;;;;;42.86;17.55;100420.46;117052;1185;21868;-63
2022/07/16 11:02:18;;;;;;;4.60;1.70;;;;;;;42.55;18.69;100411.34;117019;1187;22049;-65
2022/07/16 11:04:53;;;;;;;3.10;1.50;;;;;;;42.68;19.04;100408.39;116893;1185;23456;-65
2022/07/16 11:07:21;;;;;;;4.50;1.70;;;;;;;42.98;18.84;100404.33;117082;1185;21860;-63
2022/07/16 11:09:54;;;;;;;4.20;1.80;;;;;;;43.22;18.68;100401.55;116788;1187;21854;-65
2022/07/16 11:12:24;;;;;;;2.20;1.30;;;;;;;43.37;18.04;100399.59;117124;1185;21871;-63
2022/07/16 11:14:59;;;;;;;2.60;1.50;;;;;;;43.48;18.41;100399.71;117939;1187;21867;-65
2022/07/16 11:17:28;;;;;;;5.00;1.70;;;;;;;43.78;18.24;100399.73;116870;1186;24227;-64
2022/07/16 11:19:57;;;;;;;2.70;1.50;;;;;;;44.06;18.02;100398.64;117194;1183;23483;-65
2022/07/16 11:22:29;;;;;;;3.10;1.60;;;;;;;44.25;18.11;100400.59;116977;1187;21861;-65
2022/07/16 11:25:01;;;;;;;2.00;1.50;;;;;;;44.40;18.06;100402.58;117206;1184;22966;-65
2022/07/16 11:27:39;;;;;;;4.00;1.60;;;;;;;44.55;17.56;100402.48;117176;1186;21870;-65
2022/07/16 11:30:09;;;;;;;1.70;1.50;;;;;;;44.55;17.66;100402.08;117229;1185;21866;-63